Time;durP1;ratioP1;P1;durP2;ratioP2;P2;SDS_P1;SDS_P2;PMS_P1;PMS_P2;Temp;Humidity;BMP_temperature;BMP_pressure;BME280_temperature;BME280_humidity;BME280_pressure;Samples;Min_cycle;Max_cycle;Signal;HPM_P1;HPM_P2
2020/12/02 00:01:00;;;;;;;19.90;8.30;;;9.40;99.90;;;;;;4086225;29;20175;-93
2020/12/02 00:03:20;;;;;;;23.70;7.73;;;9.50;99.90;;;;;;4070619;29;20234;-94
2020/12/02 00:05:21;;;;;;;24.23;8.10;;;9.50;99.90;;;;;;4070622;29;20273;-94
2020/12/02 00:07:23;;;;;;;20.77;8.30;;;9.70;99.90;;;;;;4086379;29;20180;-93
2020/12/02 00:09:24;;;;;;;23.97;8.77;;;9.90;99.90;;;;;;4070701;29;20652;-94
2020/12/02 00:11:27;;;;;;;22.90;8.60;;;9.90;99.90;;;;;;4086165;29;20184;-95
2020/12/02 00:13:32;;;;;;;24.30;9.20;;;10.00;99.90;;;;;;4070571;29;20317;-94
2020/12/02 00:15:33;;;;;;;26.40;8.33;;;10.10;99.90;;;;;;4070057;29;20556;-94
2020/12/02 00:17:34;;;;;;;23.20;9.03;;;10.00;99.90;;;;;;4070337;29;20204;-94
2020/12/02 00:19:35;;;;;;;29.43;8.47;;;9.90;99.90;;;;;;4070075;29;20218;-95
2020/12/02 00:21:35;;;;;;;22.47;7.80;;;9.90;99.90;;;;;;4070265;29;20214;-96
2020/12/02 00:23:36;;;;;;;25.97;8.57;;;9.30;99.90;;;;;;4086143;29;20750;-94
2020/12/02 00:25:37;;;;;;;24.53;8.67;;;9.40;99.90;;;;;;4070221;29;20203;-94
2020/12/02 00:27:38;;;;;;;26.97;8.57;;;9.60;99.90;;;;;;4086078;29;20172;-94
2020/12/02 00:29:38;;;;;;;20.00;8.67;;;9.70;99.90;;;;;;4069970;29;20228;-94
2020/12/02 00:31:39;;;;;;;21.67;8.53;;;9.60;99.90;;;;;;4070443;29;20172;-93
2020/12/02 00:33:40;;;;;;;23.27;8.93;;;10.00;99.90;;;;;;4085854;29;20265;-94
2020/12/02 00:35:41;;;;;;;25.07;8.77;;;10.20;99.90;;;;;;4070228;29;20735;-96
2020/12/02 00:37:43;;;;;;;23.63;9.50;;;10.00;99.90;;;;;;4085801;29;20171;-94
2020/12/02 00:39:43;;;;;;;24.00;9.87;;;10.00;99.90;;;;;;4085594;29;20187;-94
2020/12/02 00:41:48;;;;;;;25.43;8.80;;;10.00;99.90;;;;;;4069857;29;20211;-94
2020/12/02 00:43:49;;;;;;;30.63;9.87;;;10.10;99.90;;;;;;4069955;29;20235;-95
2020/12/02 00:45:54;;;;;;;23.03;10.73;;;10.20;99.90;;;;;;4085374;29;20195;-93
2020/12/02 00:47:56;;;;;;;21.00;10.43;;;10.10;99.90;;;;;;4085449;29;20179;-96
2020/12/02 00:49:57;;;;;;;31.23;11.03;;;10.10;99.90;;;;;;4085651;29;20183;-94
2020/12/02 00:51:58;;;;;;;26.43;10.87;;;10.10;99.90;;;;;;4070093;29;20169;-95
2020/12/02 00:53:59;;;;;;;32.97;11.93;;;10.10;99.90;;;;;;4070095;29;20176;-93
2020/12/02 00:56:00;;;;;;;25.07;11.30;;;10.00;99.90;;;;;;4085380;29;20227;-95
2020/12/02 00:58:29;;;;;;;27.90;10.97;;;10.10;99.90;;;;;;4085230;29;20651;-93
2020/12/02 01:00:37;;;;;;;26.67;10.87;;;10.10;99.90;;;;;;4069641;29;20181;-93
2020/12/02 01:02:49;;;;;;;23.03;12.13;;;10.00;99.90;;;;;;4069655;29;20811;-93
2020/12/02 01:04:51;;;;;;;27.33;12.70;;;9.90;99.90;;;;;;4069628;29;20652;-94
2020/12/02 01:06:54;;;;;;;26.50;12.70;;;9.80;99.90;;;;;;4069486;29;20288;-95
2020/12/02 01:08:55;;;;;;;28.47;12.70;;;9.70;99.90;;;;;;4069394;29;20240;-94
2020/12/02 01:11:10;;;;;;;27.17;12.87;;;9.70;99.90;;;;;;4069499;29;20266;-95
2020/12/02 01:13:11;;;;;;;30.00;13.20;;;9.70;99.90;;;;;;4069515;29;20184;-93
2020/12/02 01:15:20;;;;;;;29.00;12.40;;;9.80;99.90;;;;;;4069550;29;20187;-94
2020/12/02 01:17:21;;;;;;;29.93;14.20;;;9.80;99.90;;;;;;4069300;29;20183;-94
2020/12/02 01:19:27;;;;;;;34.50;12.47;;;9.90;99.90;;;;;;4085111;29;20167;-93
2020/12/02 01:21:31;;;;;;;28.43;12.43;;;10.00;99.90;;;;;;4069501;29;20204;-93
2020/12/02 01:23:33;;;;;;;24.83;12.13;;;10.00;99.90;;;;;;4069624;29;20423;-94
2020/12/02 01:25:33;;;;;;;23.53;11.57;;;9.90;99.90;;;;;;4069191;29;20287;-94
2020/12/02 01:28:00;;;;;;;26.37;13.23;;;9.70;99.90;;;;;;4069570;29;20184;-94
2020/12/02 01:30:03;;;;;;;24.57;11.20;;;9.70;99.90;;;;;;4068952;29;20243;-93
2020/12/02 01:32:05;;;;;;;26.00;11.60;;;9.60;99.90;;;;;;4069465;29;20176;-94
2020/12/02 01:34:08;;;;;;;22.13;11.03;;;9.40;99.90;;;;;;4085295;29;20175;-96
2020/12/02 01:36:11;;;;;;;23.07;10.30;;;8.80;99.90;;;;;;4085077;29;20275;-96
2020/12/02 01:38:17;;;;;;;24.07;10.47;;;8.70;99.90;;;;;;4085163;29;20183;-95
2020/12/02 01:40:30;;;;;;;26.67;11.03;;;8.50;99.90;;;;;;4085114;29;20183;-94
2020/12/02 01:42:30;;;;;;;25.50;10.50;;;8.90;99.90;;;;;;4085113;29;20199;-93
2020/12/02 01:44:31;;;;;;;19.30;9.87;;;9.10;99.90;;;;;;4068848;29;20358;-94
2020/12/02 01:46:40;;;;;;;18.07;9.10;;;9.20;99.90;;;;;;4085513;29;20208;-94
2020/12/02 01:48:56;;;;;;;26.90;10.57;;;8.80;99.90;;;;;;4069269;29;20646;-95
2020/12/02 01:51:07;;;;;;;23.07;10.67;;;8.60;99.90;;;;;;4068932;29;20188;-95
2020/12/02 01:53:33;;;;;;;21.57;9.30;;;8.70;99.90;;;;;;4084872;29;20210;-94
2020/12/02 01:55:57;;;;;;;26.40;11.17;;;9.00;99.90;;;;;;4085021;29;20195;-95
2020/12/02 01:58:01;;;;;;;21.63;10.87;;;9.40;99.90;;;;;;4068655;29;20188;-94
2020/12/02 02:00:09;;;;;;;33.73;11.70;;;9.70;99.90;;;;;;4069444;29;20198;-94
2020/12/02 02:02:35;;;;;;;28.13;11.97;;;9.60;99.90;;;;;;4069480;29;20212;-96
2020/12/02 02:05:03;;;;;;;32.13;14.20;;;9.90;99.90;;;;;;4069748;29;20180;-95
2020/12/02 02:07:17;;;;;;;26.83;13.17;;;10.40;99.90;;;;;;4084930;29;20698;-95
2020/12/02 02:09:17;;;;;;;27.17;13.20;;;10.50;99.90;;;;;;4085357;29;20235;-94
2020/12/02 02:11:21;;;;;;;27.23;14.43;;;10.40;99.90;;;;;;4088493;29;20262;-93
2020/12/02 02:13:33;;;;;;;39.23;15.40;;;10.30;99.90;;;;;;4087876;29;20187;-95
2020/12/02 02:15:47;;;;;;;26.93;13.93;;;10.30;99.90;;;;;;4072193;29;20207;-94
2020/12/02 02:17:55;;;;;;;29.07;15.43;;;10.10;99.90;;;;;;4072330;29;20184;-94
2020/12/02 02:19:57;;;;;;;24.30;14.67;;;9.90;99.90;;;;;;4072074;29;20271;-94
2020/12/02 02:21:58;;;;;;;31.40;14.63;;;9.80;99.90;;;;;;4072040;29;20591;-96
2020/12/02 02:23:59;;;;;;;27.47;14.30;;;10.00;99.90;;;;;;4072446;29;20183;-96
2020/12/02 02:26:13;;;;;;;25.80;14.50;;;10.00;99.90;;;;;;4072486;29;20223;-96
2020/12/02 02:28:14;;;;;;;28.07;14.63;;;9.80;99.90;;;;;;4072194;29;20176;-94
2020/12/02 02:30:17;;;;;;;25.33;14.57;;;10.00;99.90;;;;;;4071748;29;20328;-94
2020/12/02 02:32:24;;;;;;;28.57;14.47;;;10.00;99.90;;;;;;4087907;29;20566;-95
2020/12/02 02:34:27;;;;;;;28.77;15.10;;;10.10;99.90;;;;;;4071652;29;20322;-94
2020/12/02 02:36:28;;;;;;;26.93;15.13;;;10.10;99.90;;;;;;4072487;29;20227;-93
2020/12/02 02:38:29;;;;;;;32.57;15.63;;;10.00;99.90;;;;;;4087884;29;20184;-93
2020/12/02 02:40:30;;;;;;;31.10;15.23;;;10.00;99.90;;;;;;4072212;29;20172;-94
2020/12/02 02:42:38;;;;;;;28.53;15.00;;;10.10;99.90;;;;;;4071818;29;20302;-93
2020/12/02 02:44:39;;;;;;;27.43;14.80;;;10.00;99.90;;;;;;4071800;29;20678;-93
2020/12/02 02:46:40;;;;;;;29.63;14.23;;;10.10;99.90;;;;;;4071666;29;20287;-93
2020/12/02 02:48:41;;;;;;;25.00;14.37;;;10.00;99.90;;;;;;4071627;29;20176;-94
2020/12/02 02:50:42;;;;;;;29.80;15.00;;;9.90;99.90;;;;;;4071857;29;20668;-94
2020/12/02 02:52:43;;;;;;;22.10;13.20;;;10.00;99.90;;;;;;4071577;29;20180;-93
2020/12/02 02:54:44;;;;;;;25.80;14.23;;;10.00;99.90;;;;;;4087662;29;20179;-93
2020/12/02 02:56:45;;;;;;;25.60;13.97;;;9.60;99.90;;;;;;4087225;29;20199;-95
2020/12/02 02:58:46;;;;;;;28.43;15.00;;;9.70;99.90;;;;;;4088348;29;20176;-95
2020/12/02 03:00:47;;;;;;;26.70;14.77;;;9.90;99.90;;;;;;4087587;29;20187;-95
2020/12/02 03:02:48;;;;;;;25.73;13.80;;;10.10;99.90;;;;;;4087105;29;20215;-93
2020/12/02 03:04:48;;;;;;;24.40;14.50;;;10.20;99.90;;;;;;4087966;29;20551;-95
2020/12/02 03:06:49;;;;;;;26.53;14.97;;;10.20;99.90;;;;;;4087016;29;20584;-94
2020/12/02 03:08:51;;;;;;;31.17;16.10;;;10.30;99.90;;;;;;4087214;29;20230;-94
2020/12/02 03:10:54;;;;;;;30.83;15.57;;;10.20;99.90;;;;;;4071487;29;20183;-96
2020/12/02 03:12:58;;;;;;;26.00;15.47;;;10.20;99.90;;;;;;4071684;29;20703;-94
2020/12/02 03:14:59;;;;;;;26.30;15.27;;;10.30;99.90;;;;;;4087364;29;20632;-93
2020/12/02 03:17:00;;;;;;;29.27;16.83;;;10.30;99.90;;;;;;4071497;29;20196;-93
2020/12/02 03:19:31;;;;;;;29.63;17.37;;;10.20;99.90;;;;;;4071376;29;20644;-93
2020/12/02 03:21:32;;;;;;;28.87;16.57;;;10.20;99.90;;;;;;4069176;29;20740;-94
2020/12/02 03:23:32;;;;;;;26.90;15.73;;;10.10;99.90;;;;;;4086928;29;20184;-94
2020/12/02 03:25:33;;;;;;;36.30;17.07;;;10.00;99.90;;;;;;4071973;29;20207;-94
2020/12/02 03:27:34;;;;;;;30.87;16.73;;;10.00;99.90;;;;;;4071343;29;20173;-94
2020/12/02 03:29:35;;;;;;;30.03;16.80;;;9.80;99.90;;;;;;4070879;29;20311;-93
2020/12/02 03:31:36;;;;;;;31.37;17.03;;;9.90;99.90;;;;;;4087605;29;20186;-93
2020/12/02 03:33:37;;;;;;;27.57;15.43;;;10.10;99.90;;;;;;4071866;29;20183;-94
2020/12/02 03:35:37;;;;;;;27.10;15.57;;;9.90;99.90;;;;;;4070956;29;20192;-94
2020/12/02 03:37:38;;;;;;;27.23;16.83;;;9.80;99.90;;;;;;4071779;29;20239;-96
2020/12/02 03:39:39;;;;;;;28.07;16.27;;;9.90;99.90;;;;;;4086931;29;20191;-95
2020/12/02 03:41:40;;;;;;;32.07;17.13;;;9.80;99.90;;;;;;4070929;29;20208;-94
2020/12/02 03:43:41;;;;;;;30.43;16.90;;;9.80;99.90;;;;;;4070948;29;20232;-93
2020/12/02 03:45:43;;;;;;;23.93;14.60;;;9.90;99.90;;;;;;4070931;29;20203;-94
2020/12/02 03:47:44;;;;;;;23.73;14.47;;;9.90;99.90;;;;;;4086776;29;20586;-94
2020/12/02 03:49:45;;;;;;;26.70;14.83;;;9.40;99.90;;;;;;4086599;29;20184;-94
2020/12/02 03:51:46;;;;;;;25.57;13.67;;;9.00;99.90;;;;;;4086801;29;20239;-94
2020/12/02 03:53:47;;;;;;;22.00;13.63;;;8.80;99.90;;;;;;4086640;29;20171;-94
2020/12/02 03:55:48;;;;;;;29.63;14.70;;;8.60;99.90;;;;;;4086382;29;20282;-94
2020/12/02 03:57:48;;;;;;;22.73;13.07;;;8.40;99.90;;;;;;4086562;29;20176;-94
2020/12/02 03:59:49;;;;;;;24.43;13.13;;;8.30;99.90;;;;;;4086813;29;20188;-94
2020/12/02 04:01:50;;;;;;;20.57;12.87;;;8.20;99.90;;;;;;4086094;29;20216;-95
2020/12/02 04:03:50;;;;;;;22.43;13.43;;;8.10;99.90;;;;;;4087117;29;20175;-94
2020/12/02 04:05:51;;;;;;;24.70;13.77;;;8.30;99.90;;;;;;4086353;29;20671;-94
2020/12/02 04:07:52;;;;;;;25.90;13.57;;;8.20;99.90;;;;;;4086092;29;20266;-95
2020/12/02 04:09:53;;;;;;;28.00;13.13;;;8.10;99.90;;;;;;4086300;29;20180;-94
2020/12/02 04:11:53;;;;;;;22.80;13.70;;;8.20;99.90;;;;;;4086475;29;20218;-96
2020/12/02 04:13:54;;;;;;;22.73;13.03;;;8.30;99.90;;;;;;4086128;29;20175;-94
2020/12/02 04:15:55;;;;;;;25.40;13.03;;;8.30;99.90;;;;;;4071002;29;20803;-94
2020/12/02 04:17:56;;;;;;;23.37;13.63;;;8.40;99.90;;;;;;4070964;29;20200;-94
2020/12/02 04:19:57;;;;;;;21.03;12.97;;;8.50;99.90;;;;;;4070318;29;20208;-93
2020/12/02 04:21:57;;;;;;;23.87;13.27;;;8.30;99.90;;;;;;4086303;29;20200;-94
2020/12/02 04:23:58;;;;;;;21.20;12.07;;;8.30;99.90;;;;;;4086444;29;20295;-94
2020/12/02 04:25:59;;;;;;;26.33;13.13;;;8.40;99.90;;;;;;4069921;29;20240;-94
2020/12/02 04:28:00;;;;;;;24.83;12.10;;;8.50;99.90;;;;;;4070129;29;20172;-94
2020/12/02 04:30:01;;;;;;;24.90;12.57;;;8.30;99.90;;;;;;4070303;29;20221;-94
2020/12/02 04:32:04;;;;;;;20.80;12.63;;;8.20;99.90;;;;;;4085402;29;20266;-93
2020/12/02 04:34:05;;;;;;;21.23;12.97;;;8.50;99.90;;;;;;4070259;29;20279;-94
2020/12/02 04:36:08;;;;;;;25.33;12.50;;;8.80;99.90;;;;;;4070848;29;20660;-96
2020/12/02 04:38:09;;;;;;;23.33;13.37;;;9.00;99.90;;;;;;4070092;29;20173;-94
2020/12/02 04:40:21;;;;;;;22.83;12.33;;;9.40;99.90;;;;;;4070589;29;20266;-95
2020/12/02 04:42:30;;;;;;;22.47;13.17;;;8.90;99.90;;;;;;4070261;29;20208;-95
2020/12/02 04:44:31;;;;;;;23.43;12.53;;;8.70;99.90;;;;;;4085781;29;20258;-95
2020/12/02 04:46:33;;;;;;;24.10;12.80;;;8.50;99.90;;;;;;4086055;29;20307;-93
2020/12/02 04:48:34;;;;;;;24.20;13.03;;;8.40;99.90;;;;;;4086791;29;20171;-95
2020/12/02 04:50:34;;;;;;;23.83;12.87;;;8.50;99.90;;;;;;4085840;29;20187;-94
2020/12/02 04:52:35;;;;;;;22.93;11.93;;;8.50;99.90;;;;;;4085728;29;20181;-94
2020/12/02 04:54:36;;;;;;;29.40;14.53;;;8.30;99.90;;;;;;4086077;29;20699;-93
2020/12/02 04:56:45;;;;;;;24.17;14.03;;;8.30;99.90;;;;;;4085832;29;20203;-95
2020/12/02 04:58:49;;;;;;;23.87;12.10;;;8.10;99.90;;;;;;4086408;29;20678;-94
2020/12/02 05:00:50;;;;;;;20.17;12.00;;;8.00;99.90;;;;;;4085577;29;20231;-94
2020/12/02 05:02:50;;;;;;;19.73;12.60;;;7.90;99.90;;;;;;4070051;29;20796;-94
2020/12/02 05:05:00;;;;;;;21.23;11.83;;;7.90;99.90;;;;;;4069859;29;20200;-96
2020/12/02 05:07:19;;;;;;;23.20;11.80;;;8.00;99.90;;;;;;4069723;29;20258;-94
2020/12/02 05:09:22;;;;;;;20.10;12.57;;;8.00;99.90;;;;;;4085071;29;20576;-94
2020/12/02 05:11:23;;;;;;;23.93;12.10;;;7.90;99.90;;;;;;4085594;29;20168;-94
2020/12/02 05:13:25;;;;;;;27.40;12.70;;;8.00;99.90;;;;;;4085469;29;20547;-95
2020/12/02 05:15:28;;;;;;;22.10;12.30;;;8.10;99.90;;;;;;4085501;29;20171;-94
2020/12/02 05:17:29;;;;;;;22.50;12.20;;;8.10;99.90;;;;;;4070215;29;20259;-94
2020/12/02 05:19:30;;;;;;;24.70;12.57;;;8.20;99.90;;;;;;4069425;29;20287;-94
2020/12/02 05:21:40;;;;;;;19.97;11.20;;;8.20;99.90;;;;;;4069504;29;20208;-96
2020/12/02 05:23:40;;;;;;;21.73;11.40;;;8.20;99.90;;;;;;4069709;29;20220;-94
2020/12/02 05:25:41;;;;;;;19.83;12.07;;;8.10;99.90;;;;;;4069267;29;20226;-94
2020/12/02 05:27:44;;;;;;;25.37;13.00;;;8.40;99.90;;;;;;4069448;29;20251;-94
2020/12/02 05:29:50;;;;;;;21.73;13.97;;;8.70;99.90;;;;;;4069363;29;20227;-93
2020/12/02 05:34:04;;;;;;;25.33;13.73;;;8.30;99.90;;;;;;4115174;28;20288;-90
2020/12/02 05:36:24;;;;;;;26.87;13.40;;;8.10;99.90;;;;;;4100789;29;20202;-90
2020/12/02 05:38:32;;;;;;;23.23;14.07;;;8.10;99.90;;;;;;4132745;28;20204;-91
2020/12/02 05:40:33;;;;;;;20.87;12.77;;;8.10;99.90;;;;;;4133672;28;20648;-91
2020/12/02 05:42:41;;;;;;;19.80;11.30;;;8.00;99.90;;;;;;4100332;29;20210;-91
2020/12/02 05:44:42;;;;;;;22.33;13.13;;;8.10;99.90;;;;;;4116049;28;20174;-89
2020/12/02 05:46:48;;;;;;;20.70;11.37;;;8.10;99.90;;;;;;4100232;28;20195;-92
2020/12/02 05:48:59;;;;;;;28.50;13.17;;;8.10;99.90;;;;;;4100340;29;20261;-89
2020/12/02 05:51:01;;;;;;;25.70;12.27;;;8.20;99.90;;;;;;4116632;28;20616;-90
2020/12/02 05:53:18;;;;;;;20.50;11.60;;;8.10;99.90;;;;;;4100383;29;20191;-91
2020/12/02 05:55:26;;;;;;;19.60;11.53;;;8.20;99.90;;;;;;4100561;28;20607;-90
2020/12/02 05:57:27;;;;;;;33.07;13.00;;;8.10;99.90;;;;;;4100682;28;20569;-90
2020/12/02 05:59:27;;;;;;;17.40;11.63;;;8.20;99.90;;;;;;4116294;28;20175;-91
2020/12/02 06:01:29;;;;;;;23.53;12.07;;;8.20;99.90;;;;;;4100370;29;20258;-92
2020/12/02 06:03:34;;;;;;;21.20;11.63;;;7.90;99.90;;;;;;4100546;29;20281;-92
2020/12/02 06:05:35;;;;;;;19.60;11.03;;;7.70;99.90;;;;;;4116305;28;20617;-89
2020/12/02 06:07:50;;;;;;;16.77;11.60;;;7.60;99.90;;;;;;4100446;29;20186;-91
2020/12/02 06:09:52;;;;;;;21.80;11.80;;;7.50;99.90;;;;;;4116687;28;20710;-91
2020/12/02 06:12:02;;;;;;;18.00;11.50;;;7.50;99.90;;;;;;4100899;29;20271;-89
2020/12/02 06:14:28;;;;;;;19.83;11.50;;;7.60;99.90;;;;;;4100452;29;20206;-92
2020/12/02 06:16:36;;;;;;;21.07;11.73;;;7.70;99.90;;;;;;4100354;28;20195;-92
2020/12/02 06:18:39;;;;;;;21.37;11.90;;;7.60;99.90;;;;;;4100402;28;20182;-89
2020/12/02 06:20:46;;;;;;;20.70;11.67;;;7.60;99.90;;;;;;4100206;29;20647;-90
2020/12/02 06:22:53;;;;;;;19.07;11.43;;;7.60;99.90;;;;;;4100176;28;20233;-90
2020/12/02 06:24:54;;;;;;;21.80;12.20;;;7.60;99.90;;;;;;4100455;29;20179;-89
2020/12/02 06:26:54;;;;;;;22.23;12.17;;;7.60;99.90;;;;;;4116246;28;20326;-89
2020/12/02 06:28:55;;;;;;;23.00;11.40;;;7.70;99.90;;;;;;4100137;29;20167;-92
2020/12/02 06:31:16;;;;;;;21.90;11.90;;;7.70;99.90;;;;;;4099968;29;20190;-92
2020/12/02 06:33:21;;;;;;;21.93;11.90;;;7.60;99.90;;;;;;4102903;28;20225;-90
2020/12/02 06:35:22;;;;;;;22.27;11.50;;;7.60;99.90;;;;;;4100106;28;20262;-90
2020/12/02 06:37:26;;;;;;;21.77;11.97;;;7.80;99.90;;;;;;4116227;28;20171;-92
2020/12/02 06:39:32;;;;;;;22.97;10.47;;;7.70;99.90;;;;;;4115993;28;20190;-92
2020/12/02 06:41:41;;;;;;;25.37;12.40;;;7.70;99.90;;;;;;4116050;28;20194;-89
2020/12/02 06:43:58;;;;;;;23.17;13.10;;;8.50;99.90;;;;;;4116220;28;20182;-91
2020/12/02 06:46:03;;;;;;;23.83;13.00;;;9.10;99.90;;;;;;4116005;28;20198;-90
2020/12/02 06:48:28;;;;;;;26.57;13.90;;;9.20;99.90;;;;;;4100018;29;20182;-92
2020/12/02 06:50:35;;;;;;;25.07;14.07;;;9.10;99.90;;;;;;4115948;28;20257;-91
2020/12/02 06:52:36;;;;;;;26.73;14.93;;;9.60;99.90;;;;;;4115840;28;20188;-91
2020/12/02 06:54:40;;;;;;;31.87;15.23;;;9.70;99.90;;;;;;4100093;29;20168;-91
2020/12/02 06:56:40;;;;;;;31.30;16.50;;;9.90;99.90;;;;;;4102752;28;20211;-92
2020/12/02 06:58:41;;;;;;;34.80;15.90;;;9.90;99.90;;;;;;4119132;28;20182;-90
2020/12/02 07:00:47;;;;;;;31.80;17.37;;;9.80;99.90;;;;;;4102979;29;20634;-90
2020/12/02 07:03:02;;;;;;;33.13;15.97;;;9.70;99.90;;;;;;4118991;28;20229;-92
2020/12/02 07:05:33;;;;;;;26.63;15.60;;;9.50;99.90;;;;;;4118867;28;20273;-93
2020/12/02 07:07:34;;;;;;;29.40;16.07;;;9.40;99.90;;;;;;4098355;29;20187;-93
2020/12/02 07:09:34;;;;;;;31.67;16.80;;;9.40;99.90;;;;;;4102895;29;20234;-92
2020/12/02 07:11:37;;;;;;;33.30;17.33;;;9.50;99.90;;;;;;4118639;28;20186;-92
2020/12/02 07:13:46;;;;;;;37.47;17.23;;;9.50;99.90;;;;;;4118762;28;20608;-92
2020/12/02 07:15:47;;;;;;;31.80;16.53;;;9.40;99.90;;;;;;4118658;28;20201;-92
2020/12/02 07:17:48;;;;;;;31.30;17.13;;;9.20;99.90;;;;;;4102808;29;20175;-93
2020/12/02 07:19:48;;;;;;;30.83;16.30;;;9.50;99.90;;;;;;4102816;29;20646;-92
2020/12/02 07:21:57;;;;;;;28.80;17.00;;;9.40;99.90;;;;;;4102579;29;20646;-93
2020/12/02 07:24:00;;;;;;;33.13;16.27;;;9.90;99.90;;;;;;4118733;28;20598;-93
2020/12/02 07:26:01;;;;;;;29.00;16.03;;;9.80;99.90;;;;;;4118662;28;20194;-92
2020/12/02 07:28:02;;;;;;;29.17;15.43;;;9.10;99.90;;;;;;4102815;29;20665;-91
2020/12/02 07:30:06;;;;;;;27.70;15.57;;;9.10;99.90;;;;;;4118636;28;20166;-92
2020/12/02 07:32:15;;;;;;;30.00;15.53;;;9.60;99.90;;;;;;4118366;28;20170;-92
2020/12/02 07:34:20;;;;;;;27.97;16.40;;;9.80;99.90;;;;;;4118727;28;20237;-93
2020/12/02 07:36:23;;;;;;;26.93;15.27;;;9.50;99.90;;;;;;4102434;28;20208;-91
2020/12/02 07:38:24;;;;;;;23.03;14.37;;;8.90;99.90;;;;;;4102488;29;20273;-92
2020/12/02 07:40:30;;;;;;;24.60;14.13;;;8.30;99.90;;;;;;4102439;29;20642;-91
2020/12/02 07:42:38;;;;;;;23.83;14.17;;;7.80;99.90;;;;;;4118250;28;20221;-91
2020/12/02 07:44:49;;;;;;;23.70;14.23;;;7.60;99.90;;;;;;4118166;28;20173;-93
2020/12/02 07:46:52;;;;;;;26.93;15.13;;;7.90;99.90;;;;;;4118274;28;20198;-93
2020/12/02 07:48:57;;;;;;;24.47;12.90;;;8.50;99.90;;;;;;4118224;28;20226;-91
2020/12/02 07:51:14;;;;;;;25.80;14.57;;;8.00;99.90;;;;;;4118135;28;20213;-93
2020/12/02 07:53:49;;;;;;;28.60;14.83;;;7.90;99.90;;;;;;4102258;29;20179;-92
2020/12/02 07:55:52;;;;;;;28.67;14.73;;;7.90;99.90;;;;;;4101996;28;20206;-93
2020/12/02 07:57:54;;;;;;;22.90;14.87;;;8.00;99.90;;;;;;4101934;29;20175;-92
2020/12/02 08:00:13;;;;;;;32.17;15.30;;;8.20;99.90;;;;;;4102169;29;20194;-92
2020/12/02 08:02:19;;;;;;;26.67;15.23;;;8.70;99.90;;;;;;4102009;29;20221;-91
2020/12/02 08:04:20;;;;;;;24.87;15.00;;;8.70;99.90;;;;;;4102131;28;20190;-92
2020/12/02 08:06:41;;;;;;;24.60;15.53;;;8.40;99.90;;;;;;4101735;28;20207;-92
2020/12/02 08:08:42;;;;;;;23.27;14.40;;;8.00;99.90;;;;;;4101827;28;20205;-93
2020/12/02 08:10:42;;;;;;;26.93;15.10;;;7.80;99.90;;;;;;4101845;28;20183;-93
2020/12/02 08:12:43;;;;;;;30.13;16.40;;;8.20;99.90;;;;;;4101753;29;20182;-92
2020/12/02 08:15:03;;;;;;;29.97;17.53;;;9.00;99.90;;;;;;4101851;29;20167;-92
2020/12/02 08:17:13;;;;;;;31.10;17.57;;;9.70;99.90;;;;;;4101788;28;20225;-92
2020/12/02 08:19:35;;;;;;;32.30;18.00;;;10.00;99.90;;;;;;4101631;28;20178;-91
2020/12/02 08:21:37;;;;;;;32.07;17.70;;;9.90;99.90;;;;;;4101782;28;20203;-91
2020/12/02 08:23:38;;;;;;;34.20;17.90;;;9.80;99.90;;;;;;4101680;29;20190;-92
2020/12/02 08:25:52;;;;;;;39.27;19.27;;;9.60;99.90;;;;;;4101938;28;20202;-92
2020/12/02 08:27:57;;;;;;;37.17;20.47;;;9.20;99.90;;;;;;4117671;28;20176;-92
2020/12/02 08:30:11;;;;;;;37.87;19.37;;;9.40;99.90;;;;;;4101604;29;20210;-93
2020/12/02 08:32:25;;;;;;;35.30;18.90;;;9.60;99.90;;;;;;4101361;28;20245;-91
2020/12/02 08:34:29;;;;;;;36.47;18.70;;;10.00;99.90;;;;;;4101728;28;20186;-93
2020/12/02 08:36:30;;;;;;;36.43;20.47;;;10.40;99.90;;;;;;4101523;28;20251;-94
2020/12/02 08:38:37;;;;;;;33.63;19.40;;;10.50;99.90;;;;;;4117825;28;20182;-91
2020/12/02 08:40:46;;;;;;;35.87;20.43;;;10.50;99.90;;;;;;4117465;28;20658;-92
2020/12/02 08:42:46;;;;;;;42.93;21.50;;;10.40;99.90;;;;;;4117342;28;20312;-93
2020/12/02 08:45:21;;;;;;;40.53;20.10;;;10.40;99.90;;;;;;4101454;28;20171;-92
2020/12/02 08:47:23;;;;;;;37.23;20.03;;;10.30;99.90;;;;;;4090916;29;20241;-92
2020/12/02 08:49:35;;;;;;;33.00;19.37;;;10.20;99.90;;;;;;4101428;29;20635;-92
2020/12/02 08:51:36;;;;;;;37.97;20.90;;;10.10;99.90;;;;;;4101577;28;20182;-92
2020/12/02 08:53:37;;;;;;;35.50;20.67;;;10.00;99.90;;;;;;4117401;28;20292;-92
2020/12/02 08:55:40;;;;;;;33.57;19.63;;;10.00;99.90;;;;;;4117301;28;20209;-92
2020/12/02 08:57:41;;;;;;;32.70;18.87;;;10.10;99.90;;;;;;4101539;29;20178;-92
2020/12/02 08:59:42;;;;;;;33.23;19.57;;;10.30;99.90;;;;;;4101362;29;20179;-91
2020/12/02 09:01:42;;;;;;;38.63;19.73;;;10.30;99.90;;;;;;4100919;29;20218;-92
2020/12/02 09:03:43;;;;;;;34.20;19.50;;;10.00;99.90;;;;;;4101283;29;20658;-93
2020/12/02 09:05:44;;;;;;;32.00;18.30;;;9.60;99.90;;;;;;4116909;28;20200;-92
2020/12/02 09:07:44;;;;;;;30.37;18.00;;;9.50;99.90;;;;;;4101052;29;20175;-93
2020/12/02 09:09:45;;;;;;;34.23;17.83;;;9.50;99.90;;;;;;4100919;29;20690;-92
2020/12/02 09:11:46;;;;;;;29.23;17.13;;;9.20;99.90;;;;;;4100949;29;20626;-91
2020/12/02 09:13:47;;;;;;;26.33;17.27;;;9.20;99.90;;;;;;4101044;29;20182;-93
2020/12/02 09:15:48;;;;;;;25.80;16.20;;;8.90;99.90;;;;;;4100809;28;20199;-93
2020/12/02 09:17:49;;;;;;;28.20;17.10;;;8.70;99.90;;;;;;4100749;29;20175;-93
2020/12/02 09:19:50;;;;;;;32.30;17.00;;;8.80;99.90;;;;;;4115943;28;20264;-91
2020/12/02 09:21:51;;;;;;;29.30;17.07;;;9.00;99.90;;;;;;4116776;28;20210;-93
2020/12/02 09:23:53;;;;;;;27.73;17.47;;;9.40;99.90;;;;;;4116938;28;20182;-91
2020/12/02 09:25:53;;;;;;;25.23;17.07;;;9.50;99.90;;;;;;4116721;28;20222;-92
2020/12/02 09:27:54;;;;;;;27.10;17.27;;;9.80;99.90;;;;;;4116735;28;20229;-91
2020/12/02 09:29:55;;;;;;;28.77;17.10;;;9.80;99.90;;;;;;4100768;29;20258;-92
2020/12/02 09:31:55;;;;;;;29.67;17.00;;;9.90;99.90;;;;;;4100384;28;20174;-94
2020/12/02 09:33:57;;;;;;;25.40;16.70;;;9.90;99.90;;;;;;4100703;29;20197;-93
2020/12/02 09:35:57;;;;;;;26.87;16.83;;;9.80;99.90;;;;;;4100637;28;20248;-92
2020/12/02 09:37:58;;;;;;;27.73;17.20;;;10.00;99.90;;;;;;4116562;28;20181;-92
2020/12/02 09:39:59;;;;;;;31.23;17.67;;;10.20;99.90;;;;;;4100711;29;20680;-91
2020/12/02 09:42:25;;;;;;;29.50;18.03;;;10.30;99.90;;;;;;4116483;28;20198;-92
2020/12/02 09:44:35;;;;;;;26.97;17.37;;;10.50;99.90;;;;;;4101077;29;20298;-91
2020/12/02 09:46:38;;;;;;;29.60;18.13;;;10.10;99.90;;;;;;4100478;28;20690;-91
2020/12/02 09:48:39;;;;;;;30.30;18.63;;;10.30;99.90;;;;;;4100794;28;20170;-92
2020/12/02 09:50:40;;;;;;;26.27;17.23;;;10.10;99.90;;;;;;4116388;28;20658;-92
2020/12/02 09:52:50;;;;;;;31.27;17.67;;;9.70;99.90;;;;;;4116324;28;20225;-92
2020/12/02 09:54:51;;;;;;;28.83;17.73;;;9.60;99.90;;;;;;4116556;28;20277;-92
2020/12/02 09:56:54;;;;;;;30.73;18.23;;;9.70;99.90;;;;;;4100642;28;20261;-91
2020/12/02 09:58:59;;;;;;;26.23;16.50;;;9.30;99.90;;;;;;4116464;28;20221;-92
2020/12/02 10:01:08;;;;;;;26.80;16.50;;;9.00;99.90;;;;;;4116515;28;20193;-93
2020/12/02 10:03:41;;;;;;;26.80;16.27;;;9.10;99.90;;;;;;4116593;28;20190;-93
2020/12/02 10:06:01;;;;;;;26.13;16.37;;;8.80;99.90;;;;;;4116268;28;20210;-91
2020/12/02 10:08:37;;;;;;;29.53;18.30;;;9.50;99.90;;;;;;4100674;29;20213;-91
2020/12/02 10:11:02;;;;;;;27.43;16.57;;;9.90;99.90;;;;;;4116384;28;20185;-92
2020/12/02 10:13:17;;;;;;;27.73;18.00;;;10.30;99.90;;;;;;4116587;28;20206;-91
2020/12/02 10:15:31;;;;;;;30.10;19.43;;;10.60;99.90;;;;;;4100585;28;20269;-91
2020/12/02 10:17:50;;;;;;;30.07;18.73;;;10.50;99.90;;;;;;4100651;28;20174;-91
2020/12/02 10:20:20;;;;;;;29.23;18.77;;;10.00;99.90;;;;;;4100419;28;20182;-91
2020/12/02 10:22:32;;;;;;;29.77;19.03;;;9.80;99.90;;;;;;4052821;29;20709;-93
2020/12/02 10:24:54;;;;;;;30.10;18.57;;;9.90;99.90;;;;;;4100191;28;20175;-91
2020/12/02 10:27:20;;;;;;;31.17;18.33;;;10.10;99.90;;;;;;4100253;28;20203;-91
2020/12/02 10:29:42;;;;;;;28.27;18.37;;;10.40;99.90;;;;;;4100174;29;20174;-92
2020/12/02 10:32:17;;;;;;;26.60;17.37;;;10.00;99.90;;;;;;4119228;28;20181;-92
2020/12/02 10:34:20;;;;;;;29.83;18.13;;;9.90;99.90;;;;;;4119419;28;20196;-91
2020/12/02 10:36:26;;;;;;;28.63;18.13;;;9.90;99.90;;;;;;4119122;28;20277;-93
2020/12/02 10:38:42;;;;;;;27.30;17.87;;;10.00;99.90;;;;;;4119805;28;20178;-91
2020/12/02 10:40:50;;;;;;;29.60;18.30;;;10.10;99.90;;;;;;4119496;28;20169;-92
2020/12/02 10:43:05;;;;;;;27.13;18.83;;;10.10;99.90;;;;;;4103069;29;20214;-94
2020/12/02 10:45:13;;;;;;;30.77;20.33;;;10.50;99.90;;;;;;4103418;29;20163;-92
2020/12/02 10:47:30;;;;;;;31.17;19.03;;;10.50;99.90;;;;;;4119339;28;20309;-92